sensor_id;sensor_type;location;lat;lon;timestamp;P1;durP1;ratioP1;P2;durP2;ratioP2
14143;SDS011;7152;48.348;10.980;2023-07-31T00:02:16;3.37;;;2.20;;
14143;SDS011;7152;48.348;10.980;2023-07-31T00:04:42;3.67;;;2.27;;
14143;SDS011;7152;48.348;10.980;2023-07-31T00:07:08;3.97;;;2.27;;
14143;SDS011;7152;48.348;10.980;2023-07-31T00:09:34;2.57;;;2.23;;
14143;SDS011;7152;48.348;10.980;2023-07-31T00:11:59;2.53;;;2.30;;
14143;SDS011;7152;48.348;10.980;2023-07-31T00:14:25;5.30;;;2.30;;
14143;SDS011;7152;48.348;10.980;2023-07-31T00:16:51;4.03;;;2.10;;
14143;SDS011;7152;48.348;10.980;2023-07-31T00:19:17;3.63;;;2.33;;
14143;SDS011;7152;48.348;10.980;2023-07-31T00:21:44;4.27;;;2.40;;
14143;SDS011;7152;48.348;10.980;2023-07-31T00:24:09;3.40;;;2.30;;
14143;SDS011;7152;48.348;10.980;2023-07-31T00:26:35;4.60;;;2.57;;
14143;SDS011;7152;48.348;10.980;2023-07-31T00:29:01;4.70;;;2.27;;
14143;SDS011;7152;48.348;10.980;2023-07-31T00:31:27;3.07;;;2.40;;
14143;SDS011;7152;48.348;10.980;2023-07-31T00:33:53;4.87;;;2.50;;
14143;SDS011;7152;48.348;10.980;2023-07-31T00:36:18;3.87;;;2.00;;
14143;SDS011;7152;48.348;10.980;2023-07-31T00:38:44;3.47;;;2.03;;
14143;SDS011;7152;48.348;10.980;2023-07-31T00:41:10;4.03;;;2.30;;
14143;SDS011;7152;48.348;10.980;2023-07-31T00:43:36;2.70;;;2.27;;
14143;SDS011;7152;48.348;10.980;2023-07-31T00:46:02;3.97;;;2.50;;
14143;SDS011;7152;48.348;10.980;2023-07-31T00:48:28;3.03;;;2.40;;
14143;SDS011;7152;48.348;10.980;2023-07-31T00:50:54;5.03;;;2.43;;
14143;SDS011;7152;48.348;10.980;2023-07-31T00:53:20;4.93;;;2.40;;
14143;SDS011;7152;48.348;10.980;2023-07-31T00:55:46;3.47;;;2.40;;
14143;SDS011;7152;48.348;10.980;2023-07-31T00:58:13;5.53;;;2.40;;
14143;SDS011;7152;48.348;10.980;2023-07-31T01:00:39;4.53;;;2.47;;
14143;SDS011;7152;48.348;10.980;2023-07-31T01:03:04;3.53;;;2.03;;
14143;SDS011;7152;48.348;10.980;2023-07-31T01:05:43;5.97;;;2.40;;
14143;SDS011;7152;48.348;10.980;2023-07-31T01:11:00;4.23;;;2.47;;
14143;SDS011;7152;48.348;10.980;2023-07-31T01:13:33;5.00;;;1.80;;
14143;SDS011;7152;48.348;10.980;2023-07-31T01:15:59;3.53;;;2.60;;
14143;SDS011;7152;48.348;10.980;2023-07-31T01:18:26;2.83;;;2.00;;
14143;SDS011;7152;48.348;10.980;2023-07-31T01:20:57;4.20;;;2.40;;
14143;SDS011;7152;48.348;10.980;2023-07-31T01:26:23;2.70;;;2.27;;
14143;SDS011;7152;48.348;10.980;2023-07-31T01:31:37;4.43;;;2.40;;
14143;SDS011;7152;48.348;10.980;2023-07-31T01:34:06;2.50;;;2.30;;
14143;SDS011;7152;48.348;10.980;2023-07-31T01:36:35;2.80;;;2.33;;
14143;SDS011;7152;48.348;10.980;2023-07-31T01:39:02;4.80;;;2.53;;
14143;SDS011;7152;48.348;10.980;2023-07-31T01:41:29;3.47;;;2.17;;
14143;SDS011;7152;48.348;10.980;2023-07-31T01:43:55;2.83;;;2.53;;
14143;SDS011;7152;48.348;10.980;2023-07-31T01:46:22;3.20;;;2.40;;
14143;SDS011;7152;48.348;10.980;2023-07-31T01:48:48;3.53;;;2.80;;
14143;SDS011;7152;48.348;10.980;2023-07-31T01:51:14;3.70;;;2.40;;
14143;SDS011;7152;48.348;10.980;2023-07-31T01:53:40;3.70;;;2.60;;
14143;SDS011;7152;48.348;10.980;2023-07-31T01:56:07;2.40;;;2.13;;
14143;SDS011;7152;48.348;10.980;2023-07-31T01:58:33;3.67;;;2.33;;
14143;SDS011;7152;48.348;10.980;2023-07-31T02:00:59;3.50;;;2.60;;
14143;SDS011;7152;48.348;10.980;2023-07-31T02:03:25;5.80;;;2.47;;
14143;SDS011;7152;48.348;10.980;2023-07-31T02:05:53;3.53;;;2.53;;
14143;SDS011;7152;48.348;10.980;2023-07-31T02:08:19;5.17;;;3.00;;
14143;SDS011;7152;48.348;10.980;2023-07-31T02:10:45;5.50;;;2.87;;
14143;SDS011;7152;48.348;10.980;2023-07-31T02:13:11;4.57;;;3.00;;
14143;SDS011;7152;48.348;10.980;2023-07-31T02:15:37;3.67;;;2.83;;
14143;SDS011;7152;48.348;10.980;2023-07-31T02:18:03;4.17;;;2.73;;
14143;SDS011;7152;48.348;10.980;2023-07-31T02:20:30;4.20;;;2.60;;
14143;SDS011;7152;48.348;10.980;2023-07-31T02:23:01;3.37;;;3.07;;
14143;SDS011;7152;48.348;10.980;2023-07-31T02:25:27;4.97;;;2.70;;
14143;SDS011;7152;48.348;10.980;2023-07-31T02:27:53;6.43;;;3.03;;
14143;SDS011;7152;48.348;10.980;2023-07-31T02:30:18;3.77;;;2.70;;
14143;SDS011;7152;48.348;10.980;2023-07-31T02:32:44;3.10;;;2.70;;
14143;SDS011;7152;48.348;10.980;2023-07-31T02:35:10;3.50;;;3.00;;
14143;SDS011;7152;48.348;10.980;2023-07-31T02:37:40;4.53;;;3.17;;
14143;SDS011;7152;48.348;10.980;2023-07-31T02:40:07;3.03;;;2.73;;
14143;SDS011;7152;48.348;10.980;2023-07-31T02:42:33;5.07;;;3.17;;
14143;SDS011;7152;48.348;10.980;2023-07-31T02:44:59;5.53;;;2.50;;
14143;SDS011;7152;48.348;10.980;2023-07-31T02:47:25;3.27;;;2.77;;
14143;SDS011;7152;48.348;10.980;2023-07-31T02:49:51;3.30;;;2.97;;
14143;SDS011;7152;48.348;10.980;2023-07-31T02:52:17;4.50;;;2.80;;
14143;SDS011;7152;48.348;10.980;2023-07-31T02:54:43;3.27;;;2.97;;
14143;SDS011;7152;48.348;10.980;2023-07-31T02:57:09;3.20;;;2.80;;
14143;SDS011;7152;48.348;10.980;2023-07-31T02:59:35;2.83;;;2.53;;
14143;SDS011;7152;48.348;10.980;2023-07-31T03:02:00;3.87;;;3.07;;
14143;SDS011;7152;48.348;10.980;2023-07-31T03:04:26;3.43;;;2.70;;
14143;SDS011;7152;48.348;10.980;2023-07-31T03:06:52;4.30;;;3.07;;
14143;SDS011;7152;48.348;10.980;2023-07-31T03:09:18;4.20;;;3.07;;
14143;SDS011;7152;48.348;10.980;2023-07-31T03:11:44;5.10;;;3.30;;
14143;SDS011;7152;48.348;10.980;2023-07-31T03:14:10;3.30;;;3.00;;
14143;SDS011;7152;48.348;10.980;2023-07-31T03:16:36;6.03;;;2.90;;
14143;SDS011;7152;48.348;10.980;2023-07-31T03:19:02;3.23;;;2.73;;
14143;SDS011;7152;48.348;10.980;2023-07-31T03:21:27;4.00;;;2.73;;
14143;SDS011;7152;48.348;10.980;2023-07-31T03:23:53;5.97;;;3.13;;
14143;SDS011;7152;48.348;10.980;2023-07-31T03:26:19;4.30;;;3.43;;
14143;SDS011;7152;48.348;10.980;2023-07-31T03:28:45;4.20;;;3.00;;
14143;SDS011;7152;48.348;10.980;2023-07-31T03:31:11;4.93;;;3.00;;
14143;SDS011;7152;48.348;10.980;2023-07-31T03:33:37;5.00;;;3.10;;
14143;SDS011;7152;48.348;10.980;2023-07-31T03:36:03;3.93;;;3.50;;
14143;SDS011;7152;48.348;10.980;2023-07-31T03:38:29;5.50;;;3.27;;
14143;SDS011;7152;48.348;10.980;2023-07-31T03:40:55;3.90;;;3.13;;
14143;SDS011;7152;48.348;10.980;2023-07-31T03:43:21;4.03;;;3.07;;
14143;SDS011;7152;48.348;10.980;2023-07-31T03:45:46;4.20;;;3.00;;
14143;SDS011;7152;48.348;10.980;2023-07-31T03:48:13;4.87;;;2.80;;
14143;SDS011;7152;48.348;10.980;2023-07-31T03:50:40;5.17;;;2.93;;
14143;SDS011;7152;48.348;10.980;2023-07-31T03:53:06;4.17;;;2.70;;
14143;SDS011;7152;48.348;10.980;2023-07-31T03:55:32;3.97;;;2.87;;
14143;SDS011;7152;48.348;10.980;2023-07-31T03:57:57;3.73;;;3.13;;
14143;SDS011;7152;48.348;10.980;2023-07-31T04:00:25;6.37;;;3.50;;
14143;SDS011;7152;48.348;10.980;2023-07-31T04:02:52;10.37;;;3.40;;
14143;SDS011;7152;48.348;10.980;2023-07-31T04:05:18;4.03;;;3.30;;
14143;SDS011;7152;48.348;10.980;2023-07-31T04:07:44;4.43;;;3.20;;
14143;SDS011;7152;48.348;10.980;2023-07-31T04:10:09;4.40;;;2.70;;
14143;SDS011;7152;48.348;10.980;2023-07-31T04:12:35;3.67;;;3.03;;
14143;SDS011;7152;48.348;10.980;2023-07-31T04:15:01;4.00;;;2.83;;
14143;SDS011;7152;48.348;10.980;2023-07-31T04:17:29;3.20;;;2.77;;
14143;SDS011;7152;48.348;10.980;2023-07-31T04:19:55;4.03;;;3.23;;
14143;SDS011;7152;48.348;10.980;2023-07-31T04:22:21;4.50;;;2.97;;
14143;SDS011;7152;48.348;10.980;2023-07-31T04:24:47;6.70;;;3.23;;
14143;SDS011;7152;48.348;10.980;2023-07-31T04:27:12;4.13;;;2.83;;
14143;SDS011;7152;48.348;10.980;2023-07-31T04:29:38;3.87;;;2.70;;
14143;SDS011;7152;48.348;10.980;2023-07-31T04:32:05;5.17;;;3.00;;
14143;SDS011;7152;48.348;10.980;2023-07-31T04:34:31;3.43;;;2.70;;
14143;SDS011;7152;48.348;10.980;2023-07-31T04:36:57;4.27;;;2.80;;
14143;SDS011;7152;48.348;10.980;2023-07-31T04:39:22;4.60;;;2.90;;
14143;SDS011;7152;48.348;10.980;2023-07-31T04:41:48;4.23;;;2.93;;
14143;SDS011;7152;48.348;10.980;2023-07-31T04:44:14;3.80;;;2.77;;
14143;SDS011;7152;48.348;10.980;2023-07-31T04:46:40;4.53;;;2.83;;
14143;SDS011;7152;48.348;10.980;2023-07-31T04:49:05;4.30;;;2.70;;
14143;SDS011;7152;48.348;10.980;2023-07-31T04:51:31;5.03;;;3.00;;
14143;SDS011;7152;48.348;10.980;2023-07-31T04:53:57;3.27;;;2.40;;
14143;SDS011;7152;48.348;10.980;2023-07-31T04:56:23;4.23;;;2.83;;
14143;SDS011;7152;48.348;10.980;2023-07-31T04:58:49;3.00;;;2.70;;
14143;SDS011;7152;48.348;10.980;2023-07-31T05:01:15;5.73;;;3.60;;
14143;SDS011;7152;48.348;10.980;2023-07-31T05:03:40;3.13;;;2.50;;
14143;SDS011;7152;48.348;10.980;2023-07-31T05:06:06;4.53;;;3.10;;
14143;SDS011;7152;48.348;10.980;2023-07-31T05:08:32;3.57;;;2.30;;
14143;SDS011;7152;48.348;10.980;2023-07-31T05:10:58;3.00;;;2.40;;
14143;SDS011;7152;48.348;10.980;2023-07-31T05:13:24;3.03;;;2.63;;
14143;SDS011;7152;48.348;10.980;2023-07-31T05:15:50;3.03;;;2.80;;
14143;SDS011;7152;48.348;10.980;2023-07-31T05:18:16;4.73;;;2.80;;
14143;SDS011;7152;48.348;10.980;2023-07-31T05:20:42;3.13;;;2.57;;
14143;SDS011;7152;48.348;10.980;2023-07-31T05:23:07;7.23;;;2.93;;
14143;SDS011;7152;48.348;10.980;2023-07-31T05:25:33;3.40;;;2.30;;
14143;SDS011;7152;48.348;10.980;2023-07-31T05:27:59;4.30;;;2.70;;
14143;SDS011;7152;48.348;10.980;2023-07-31T05:30:25;2.67;;;2.47;;
14143;SDS011;7152;48.348;10.980;2023-07-31T05:32:51;2.93;;;2.57;;
14143;SDS011;7152;48.348;10.980;2023-07-31T05:35:17;4.43;;;2.60;;
14143;SDS011;7152;48.348;10.980;2023-07-31T05:37:43;4.27;;;2.50;;
14143;SDS011;7152;48.348;10.980;2023-07-31T05:40:09;3.30;;;2.37;;
14143;SDS011;7152;48.348;10.980;2023-07-31T05:42:35;2.97;;;2.53;;
14143;SDS011;7152;48.348;10.980;2023-07-31T05:45:03;3.90;;;2.30;;
14143;SDS011;7152;48.348;10.980;2023-07-31T05:47:30;3.90;;;2.30;;
14143;SDS011;7152;48.348;10.980;2023-07-31T05:49:56;3.00;;;2.30;;
14143;SDS011;7152;48.348;10.980;2023-07-31T05:52:21;3.93;;;2.40;;
14143;SDS011;7152;48.348;10.980;2023-07-31T05:54:47;2.37;;;2.17;;
14143;SDS011;7152;48.348;10.980;2023-07-31T05:57:13;3.43;;;2.40;;
14143;SDS011;7152;48.348;10.980;2023-07-31T05:59:39;2.80;;;2.50;;
14143;SDS011;7152;48.348;10.980;2023-07-31T06:02:05;2.90;;;2.30;;
14143;SDS011;7152;48.348;10.980;2023-07-31T06:04:31;4.30;;;2.50;;
14143;SDS011;7152;48.348;10.980;2023-07-31T06:06:57;5.23;;;1.97;;
14143;SDS011;7152;48.348;10.980;2023-07-31T06:09:23;3.63;;;2.40;;
14143;SDS011;7152;48.348;10.980;2023-07-31T06:11:48;3.97;;;2.30;;
14143;SDS011;7152;48.348;10.980;2023-07-31T06:14:14;4.97;;;2.23;;
14143;SDS011;7152;48.348;10.980;2023-07-31T06:16:40;2.60;;;2.10;;
14143;SDS011;7152;48.348;10.980;2023-07-31T06:19:06;3.60;;;2.10;;
14143;SDS011;7152;48.348;10.980;2023-07-31T06:21:32;2.60;;;2.40;;
14143;SDS011;7152;48.348;10.980;2023-07-31T06:23:58;2.73;;;2.00;;
14143;SDS011;7152;48.348;10.980;2023-07-31T06:26:24;2.90;;;2.43;;
14143;SDS011;7152;48.348;10.980;2023-07-31T06:28:50;7.40;;;2.90;;
14143;SDS011;7152;48.348;10.980;2023-07-31T06:31:16;2.77;;;2.27;;
14143;SDS011;7152;48.348;10.980;2023-07-31T06:33:45;3.40;;;2.17;;
14143;SDS011;7152;48.348;10.980;2023-07-31T06:36:11;5.20;;;2.20;;
14143;SDS011;7152;48.348;10.980;2023-07-31T06:38:37;2.60;;;2.40;;
14143;SDS011;7152;48.348;10.980;2023-07-31T06:41:02;3.87;;;2.40;;
14143;SDS011;7152;48.348;10.980;2023-07-31T06:43:29;2.87;;;1.97;;
14143;SDS011;7152;48.348;10.980;2023-07-31T06:45:55;4.87;;;2.33;;
14143;SDS011;7152;48.348;10.980;2023-07-31T06:48:20;3.43;;;1.93;;
14143;SDS011;7152;48.348;10.980;2023-07-31T06:50:46;1.90;;;1.80;;
14143;SDS011;7152;48.348;10.980;2023-07-31T06:53:12;2.97;;;2.00;;
14143;SDS011;7152;48.348;10.980;2023-07-31T06:55:38;2.27;;;1.73;;
14143;SDS011;7152;48.348;10.980;2023-07-31T06:58:04;3.07;;;2.07;;
14143;SDS011;7152;48.348;10.980;2023-07-31T07:00:30;3.03;;;1.80;;
14143;SDS011;7152;48.348;10.980;2023-07-31T07:02:55;4.23;;;2.20;;
14143;SDS011;7152;48.348;10.980;2023-07-31T07:05:21;2.23;;;1.80;;
14143;SDS011;7152;48.348;10.980;2023-07-31T07:07:48;3.50;;;2.00;;
14143;SDS011;7152;48.348;10.980;2023-07-31T07:10:15;2.83;;;1.80;;
14143;SDS011;7152;48.348;10.980;2023-07-31T07:12:41;2.97;;;1.93;;
14143;SDS011;7152;48.348;10.980;2023-07-31T07:15:07;2.43;;;1.83;;
14143;SDS011;7152;48.348;10.980;2023-07-31T07:17:33;2.07;;;1.70;;
14143;SDS011;7152;48.348;10.980;2023-07-31T07:20:00;4.00;;;2.20;;
14143;SDS011;7152;48.348;10.980;2023-07-31T07:22:26;3.33;;;1.80;;
14143;SDS011;7152;48.348;10.980;2023-07-31T07:24:52;3.47;;;1.70;;
14143;SDS011;7152;48.348;10.980;2023-07-31T07:27:18;2.47;;;1.80;;
14143;SDS011;7152;48.348;10.980;2023-07-31T07:29:45;2.53;;;1.73;;
14143;SDS011;7152;48.348;10.980;2023-07-31T07:32:12;2.67;;;1.77;;
14143;SDS011;7152;48.348;10.980;2023-07-31T07:34:38;2.00;;;1.53;;
14143;SDS011;7152;48.348;10.980;2023-07-31T07:37:06;4.37;;;1.70;;
14143;SDS011;7152;48.348;10.980;2023-07-31T07:39:31;2.63;;;1.60;;
14143;SDS011;7152;48.348;10.980;2023-07-31T07:41:57;2.77;;;1.60;;
14143;SDS011;7152;48.348;10.980;2023-07-31T07:44:23;2.57;;;1.37;;
14143;SDS011;7152;48.348;10.980;2023-07-31T07:46:49;3.10;;;1.87;;
14143;SDS011;7152;48.348;10.980;2023-07-31T07:49:15;2.30;;;1.50;;
14143;SDS011;7152;48.348;10.980;2023-07-31T07:51:40;3.23;;;1.80;;
14143;SDS011;7152;48.348;10.980;2023-07-31T07:54:06;2.07;;;1.53;;
14143;SDS011;7152;48.348;10.980;2023-07-31T07:56:32;1.87;;;1.30;;
14143;SDS011;7152;48.348;10.980;2023-07-31T07:58:58;2.33;;;1.50;;
14143;SDS011;7152;48.348;10.980;2023-07-31T08:01:24;2.70;;;1.40;;
14143;SDS011;7152;48.348;10.980;2023-07-31T08:03:50;2.30;;;1.40;;
14143;SDS011;7152;48.348;10.980;2023-07-31T08:06:16;4.40;;;1.60;;
14143;SDS011;7152;48.348;10.980;2023-07-31T08:08:42;2.80;;;1.37;;
14143;SDS011;7152;48.348;10.980;2023-07-31T08:11:08;4.20;;;1.60;;
14143;SDS011;7152;48.348;10.980;2023-07-31T08:13:34;2.17;;;1.37;;
14143;SDS011;7152;48.348;10.980;2023-07-31T08:16:02;2.27;;;1.40;;
14143;SDS011;7152;48.348;10.980;2023-07-31T08:18:30;4.37;;;1.60;;
14143;SDS011;7152;48.348;10.980;2023-07-31T08:20:56;5.40;;;1.77;;
14143;SDS011;7152;48.348;10.980;2023-07-31T08:23:22;2.40;;;1.40;;
14143;SDS011;7152;48.348;10.980;2023-07-31T08:25:48;3.60;;;1.67;;
14143;SDS011;7152;48.348;10.980;2023-07-31T08:28:15;2.10;;;1.60;;
14143;SDS011;7152;48.348;10.980;2023-07-31T08:30:42;3.97;;;1.60;;
14143;SDS011;7152;48.348;10.980;2023-07-31T08:33:08;2.33;;;1.53;;
14143;SDS011;7152;48.348;10.980;2023-07-31T08:35:34;2.90;;;1.40;;
14143;SDS011;7152;48.348;10.980;2023-07-31T08:37:59;3.50;;;1.50;;
14143;SDS011;7152;48.348;10.980;2023-07-31T08:40:25;2.30;;;1.77;;
14143;SDS011;7152;48.348;10.980;2023-07-31T08:42:53;3.20;;;1.50;;
14143;SDS011;7152;48.348;10.980;2023-07-31T08:45:22;3.30;;;1.70;;
14143;SDS011;7152;48.348;10.980;2023-07-31T08:47:49;3.20;;;1.47;;
14143;SDS011;7152;48.348;10.980;2023-07-31T08:50:16;2.80;;;1.40;;
14143;SDS011;7152;48.348;10.980;2023-07-31T08:52:45;2.20;;;1.70;;
14143;SDS011;7152;48.348;10.980;2023-07-31T08:55:11;3.70;;;1.70;;
14143;SDS011;7152;48.348;10.980;2023-07-31T08:57:38;3.30;;;1.67;;
14143;SDS011;7152;48.348;10.980;2023-07-31T09:00:05;4.67;;;1.70;;
14143;SDS011;7152;48.348;10.980;2023-07-31T09:05:05;2.03;;;1.70;;
14143;SDS011;7152;48.348;10.980;2023-07-31T09:07:34;4.57;;;1.67;;
14143;SDS011;7152;48.348;10.980;2023-07-31T09:10:01;2.73;;;1.70;;
14143;SDS011;7152;48.348;10.980;2023-07-31T09:12:28;1.97;;;1.27;;
14143;SDS011;7152;48.348;10.980;2023-07-31T09:14:55;2.07;;;1.60;;
14143;SDS011;7152;48.348;10.980;2023-07-31T09:17:31;2.43;;;1.40;;
14143;SDS011;7152;48.348;10.980;2023-07-31T09:20:15;1.90;;;1.30;;
14143;SDS011;7152;48.348;10.980;2023-07-31T09:22:46;3.30;;;1.60;;
14143;SDS011;7152;48.348;10.980;2023-07-31T09:27:57;2.83;;;1.57;;
14143;SDS011;7152;48.348;10.980;2023-07-31T09:30:24;4.33;;;1.60;;
14143;SDS011;7152;48.348;10.980;2023-07-31T09:32:50;2.43;;;1.60;;
14143;SDS011;7152;48.348;10.980;2023-07-31T09:35:29;1.83;;;1.53;;
14143;SDS011;7152;48.348;10.980;2023-07-31T09:37:59;1.67;;;1.13;;
14143;SDS011;7152;48.348;10.980;2023-07-31T09:40:37;5.43;;;1.50;;
14143;SDS011;7152;48.348;10.980;2023-07-31T09:43:05;2.60;;;1.27;;
14143;SDS011;7152;48.348;10.980;2023-07-31T09:45:38;3.73;;;1.70;;
14143;SDS011;7152;48.348;10.980;2023-07-31T09:48:12;3.93;;;1.70;;
14143;SDS011;7152;48.348;10.980;2023-07-31T09:50:46;2.60;;;1.50;;
14143;SDS011;7152;48.348;10.980;2023-07-31T09:53:14;2.07;;;1.60;;
14143;SDS011;7152;48.348;10.980;2023-07-31T09:55:41;4.23;;;1.80;;
14143;SDS011;7152;48.348;10.980;2023-07-31T09:58:09;3.23;;;1.60;;
14143;SDS011;7152;48.348;10.980;2023-07-31T10:00:37;2.90;;;1.77;;
14143;SDS011;7152;48.348;10.980;2023-07-31T10:03:07;3.77;;;1.50;;
14143;SDS011;7152;48.348;10.980;2023-07-31T10:05:36;2.60;;;1.27;;
14143;SDS011;7152;48.348;10.980;2023-07-31T10:08:02;1.70;;;1.33;;
14143;SDS011;7152;48.348;10.980;2023-07-31T10:10:29;3.37;;;1.40;;
14143;SDS011;7152;48.348;10.980;2023-07-31T10:12:56;2.10;;;1.60;;
14143;SDS011;7152;48.348;10.980;2023-07-31T10:15:23;2.90;;;1.40;;
14143;SDS011;7152;48.348;10.980;2023-07-31T10:17:50;3.27;;;1.60;;
14143;SDS011;7152;48.348;10.980;2023-07-31T10:20:17;1.90;;;1.57;;
14143;SDS011;7152;48.348;10.980;2023-07-31T10:22:44;2.13;;;1.43;;
14143;SDS011;7152;48.348;10.980;2023-07-31T10:25:13;3.10;;;1.60;;
14143;SDS011;7152;48.348;10.980;2023-07-31T10:27:40;2.20;;;1.63;;
14143;SDS011;7152;48.348;10.980;2023-07-31T10:30:07;3.30;;;1.77;;
14143;SDS011;7152;48.348;10.980;2023-07-31T10:32:35;4.70;;;1.90;;
14143;SDS011;7152;48.348;10.980;2023-07-31T10:35:03;3.30;;;1.37;;
14143;SDS011;7152;48.348;10.980;2023-07-31T10:37:31;3.10;;;1.37;;
14143;SDS011;7152;48.348;10.980;2023-07-31T10:40:03;1.90;;;1.40;;
14143;SDS011;7152;48.348;10.980;2023-07-31T10:42:36;2.53;;;1.60;;
14143;SDS011;7152;48.348;10.980;2023-07-31T10:45:09;2.13;;;1.43;;
14143;SDS011;7152;48.348;10.980;2023-07-31T10:47:36;3.43;;;1.60;;
14143;SDS011;7152;48.348;10.980;2023-07-31T10:52:51;3.17;;;1.30;;
14143;SDS011;7152;48.348;10.980;2023-07-31T11:00:38;3.08;;;1.67;;
14143;SDS011;7152;48.348;10.980;2023-07-31T11:03:18;2.95;;;1.52;;
14143;SDS011;7152;48.348;10.980;2023-07-31T11:05:48;2.13;;;1.33;;
14143;SDS011;7152;48.348;10.980;2023-07-31T11:08:20;3.85;;;1.60;;
14143;SDS011;7152;48.348;10.980;2023-07-31T11:10:49;2.25;;;1.40;;
14143;SDS011;7152;48.348;10.980;2023-07-31T11:13:42;3.97;;;1.25;;
14143;SDS011;7152;48.348;10.980;2023-07-31T11:16:10;3.35;;;1.95;;
14143;SDS011;7152;48.348;10.980;2023-07-31T11:18:40;2.03;;;1.33;;
14143;SDS011;7152;48.348;10.980;2023-07-31T11:21:07;2.97;;;1.85;;
14143;SDS011;7152;48.348;10.980;2023-07-31T11:23:33;2.38;;;1.50;;
14143;SDS011;7152;48.348;10.980;2023-07-31T11:26:02;2.92;;;1.55;;
14143;SDS011;7152;48.348;10.980;2023-07-31T11:28:32;3.50;;;1.70;;
14143;SDS011;7152;48.348;10.980;2023-07-31T11:30:59;3.50;;;1.60;;
14143;SDS011;7152;48.348;10.980;2023-07-31T11:33:25;4.05;;;1.42;;
14143;SDS011;7152;48.348;10.980;2023-07-31T11:35:51;2.25;;;1.40;;
14143;SDS011;7152;48.348;10.980;2023-07-31T11:38:21;1.83;;;1.58;;
14143;SDS011;7152;48.348;10.980;2023-07-31T11:40:49;2.75;;;1.40;;
14143;SDS011;7152;48.348;10.980;2023-07-31T11:43:15;2.50;;;1.33;;
14143;SDS011;7152;48.348;10.980;2023-07-31T11:45:49;2.63;;;1.30;;
14143;SDS011;7152;48.348;10.980;2023-07-31T11:50:47;1.88;;;1.20;;
14143;SDS011;7152;48.348;10.980;2023-07-31T11:53:14;1.60;;;1.23;;
14143;SDS011;7152;48.348;10.980;2023-07-31T11:55:41;2.10;;;1.60;;
14143;SDS011;7152;48.348;10.980;2023-07-31T11:58:07;1.55;;;1.02;;
14143;SDS011;7152;48.348;10.980;2023-07-31T12:00:34;3.70;;;1.40;;
14143;SDS011;7152;48.348;10.980;2023-07-31T12:03:00;2.40;;;1.60;;
14143;SDS011;7152;48.348;10.980;2023-07-31T12:05:26;1.92;;;1.17;;
14143;SDS011;7152;48.348;10.980;2023-07-31T12:07:54;2.35;;;1.40;;
14143;SDS011;7152;48.348;10.980;2023-07-31T12:10:27;2.67;;;1.23;;
14143;SDS011;7152;48.348;10.980;2023-07-31T12:13:08;1.77;;;1.10;;
14143;SDS011;7152;48.348;10.980;2023-07-31T12:15:45;3.70;;;1.48;;
14143;SDS011;7152;48.348;10.980;2023-07-31T12:18:15;2.50;;;1.38;;
14143;SDS011;7152;48.348;10.980;2023-07-31T12:20:45;2.97;;;1.40;;
14143;SDS011;7152;48.348;10.980;2023-07-31T12:23:35;3.08;;;1.48;;
14143;SDS011;7152;48.348;10.980;2023-07-31T12:26:06;1.85;;;1.50;;
14143;SDS011;7152;48.348;10.980;2023-07-31T12:28:40;2.08;;;1.02;;
14143;SDS011;7152;48.348;10.980;2023-07-31T12:31:09;3.30;;;1.13;;
14143;SDS011;7152;48.348;10.980;2023-07-31T12:33:37;1.73;;;1.30;;
14143;SDS011;7152;48.348;10.980;2023-07-31T12:36:06;1.20;;;1.00;;
14143;SDS011;7152;48.348;10.980;2023-07-31T12:38:36;2.60;;;1.70;;
14143;SDS011;7152;48.348;10.980;2023-07-31T12:41:02;1.17;;;1.00;;
14143;SDS011;7152;48.348;10.980;2023-07-31T12:43:28;2.47;;;1.42;;
14143;SDS011;7152;48.348;10.980;2023-07-31T12:45:54;2.30;;;1.60;;
14143;SDS011;7152;48.348;10.980;2023-07-31T12:48:21;2.17;;;1.30;;
14143;SDS011;7152;48.348;10.980;2023-07-31T12:50:47;1.77;;;1.17;;
14143;SDS011;7152;48.348;10.980;2023-07-31T12:53:13;2.30;;;1.20;;
14143;SDS011;7152;48.348;10.980;2023-07-31T12:55:40;1.40;;;1.30;;
14143;SDS011;7152;48.348;10.980;2023-07-31T12:58:06;1.55;;;1.13;;
14143;SDS011;7152;48.348;10.980;2023-07-31T13:00:32;2.15;;;1.33;;
14143;SDS011;7152;48.348;10.980;2023-07-31T13:02:58;1.85;;;1.48;;
14143;SDS011;7152;48.348;10.980;2023-07-31T13:05:25;2.92;;;1.52;;
14143;SDS011;7152;48.348;10.980;2023-07-31T13:07:52;2.38;;;1.40;;
14143;SDS011;7152;48.348;10.980;2023-07-31T13:10:18;2.95;;;1.23;;
14143;SDS011;7152;48.348;10.980;2023-07-31T13:12:44;2.28;;;1.20;;
14143;SDS011;7152;48.348;10.980;2023-07-31T13:15:10;1.80;;;1.33;;
14143;SDS011;7152;48.348;10.980;2023-07-31T13:17:36;1.50;;;1.40;;
14143;SDS011;7152;48.348;10.980;2023-07-31T13:20:02;3.03;;;1.25;;
14143;SDS011;7152;48.348;10.980;2023-07-31T13:22:29;2.80;;;1.30;;
14143;SDS011;7152;48.348;10.980;2023-07-31T13:24:55;1.95;;;1.17;;
14143;SDS011;7152;48.348;10.980;2023-07-31T13:27:21;2.67;;;1.30;;
14143;SDS011;7152;48.348;10.980;2023-07-31T13:29:47;2.55;;;1.60;;
14143;SDS011;7152;48.348;10.980;2023-07-31T13:32:15;2.15;;;1.55;;
14143;SDS011;7152;48.348;10.980;2023-07-31T13:34:42;2.70;;;1.30;;
14143;SDS011;7152;48.348;10.980;2023-07-31T13:37:08;2.30;;;1.52;;
14143;SDS011;7152;48.348;10.980;2023-07-31T13:39:34;2.50;;;1.70;;
14143;SDS011;7152;48.348;10.980;2023-07-31T13:42:00;2.20;;;1.80;;
14143;SDS011;7152;48.348;10.980;2023-07-31T13:44:28;2.35;;;1.73;;
14143;SDS011;7152;48.348;10.980;2023-07-31T13:46:53;2.15;;;1.30;;
14143;SDS011;7152;48.348;10.980;2023-07-31T13:49:19;2.90;;;1.70;;
14143;SDS011;7152;48.348;10.980;2023-07-31T13:51:45;3.13;;;1.45;;
14143;SDS011;7152;48.348;10.980;2023-07-31T13:54:11;3.10;;;1.60;;
14143;SDS011;7152;48.348;10.980;2023-07-31T13:56:37;2.45;;;1.50;;
14143;SDS011;7152;48.348;10.980;2023-07-31T13:59:03;2.97;;;1.70;;
14143;SDS011;7152;48.348;10.980;2023-07-31T14:01:29;2.85;;;1.50;;
14143;SDS011;7152;48.348;10.980;2023-07-31T14:03:56;3.30;;;1.52;;
14143;SDS011;7152;48.348;10.980;2023-07-31T14:06:22;3.20;;;1.60;;
14143;SDS011;7152;48.348;10.980;2023-07-31T14:08:48;3.15;;;1.80;;
14143;SDS011;7152;48.348;10.980;2023-07-31T14:11:13;3.05;;;1.40;;
14143;SDS011;7152;48.348;10.980;2023-07-31T14:13:39;2.60;;;1.80;;
14143;SDS011;7152;48.348;10.980;2023-07-31T14:16:05;2.50;;;1.50;;
14143;SDS011;7152;48.348;10.980;2023-07-31T14:18:31;2.55;;;1.50;;
14143;SDS011;7152;48.348;10.980;2023-07-31T14:20:57;2.15;;;1.52;;
14143;SDS011;7152;48.348;10.980;2023-07-31T14:23:23;2.53;;;1.35;;
14143;SDS011;7152;48.348;10.980;2023-07-31T14:25:49;4.65;;;1.85;;
14143;SDS011;7152;48.348;10.980;2023-07-31T14:28:15;2.50;;;1.42;;
14143;SDS011;7152;48.348;10.980;2023-07-31T14:30:41;3.28;;;1.80;;
14143;SDS011;7152;48.348;10.980;2023-07-31T14:33:07;2.50;;;1.75;;
14143;SDS011;7152;48.348;10.980;2023-07-31T14:35:33;2.08;;;1.50;;
14143;SDS011;7152;48.348;10.980;2023-07-31T14:37:59;1.92;;;1.60;;
14143;SDS011;7152;48.348;10.980;2023-07-31T14:40:25;2.97;;;1.70;;
14143;SDS011;7152;48.348;10.980;2023-07-31T14:42:51;3.47;;;1.83;;
14143;SDS011;7152;48.348;10.980;2023-07-31T14:45:17;3.08;;;2.00;;
14143;SDS011;7152;48.348;10.980;2023-07-31T14:47:43;3.05;;;1.90;;
14143;SDS011;7152;48.348;10.980;2023-07-31T14:50:09;3.33;;;2.00;;
14143;SDS011;7152;48.348;10.980;2023-07-31T14:52:35;2.42;;;1.92;;
14143;SDS011;7152;48.348;10.980;2023-07-31T14:55:01;4.03;;;2.00;;
14143;SDS011;7152;48.348;10.980;2023-07-31T14:57:27;3.42;;;2.05;;
14143;SDS011;7152;48.348;10.980;2023-07-31T14:59:53;2.83;;;1.77;;
14143;SDS011;7152;48.348;10.980;2023-07-31T15:02:19;2.75;;;1.63;;
14143;SDS011;7152;48.348;10.980;2023-07-31T15:04:45;3.80;;;2.00;;
14143;SDS011;7152;48.348;10.980;2023-07-31T15:07:11;2.83;;;1.80;;
14143;SDS011;7152;48.348;10.980;2023-07-31T15:09:38;3.08;;;1.65;;
14143;SDS011;7152;48.348;10.980;2023-07-31T15:12:05;3.47;;;1.75;;